Portada
METAR-TAF:

METAR-TAF

Aeroports :

General Santos, Filipines

latitud: 06-03-29N, longitud: 125-05-46E, altitud: 154 m

Observació

L'informe es va fer fa 11 hores i 48 minuts, a les 09:00 UTC
Vent 9 kt del Sud/Sud-Est
Temperatura 28°C
Humitat 79%
Pressió 1011 hPa
Visibilitat 10 km o més
Escasses núvols a una alçada de 1800 ft
Núvols disperses a una alçada de 8000 ft
xàfecs en les proximitats

METAR: RPMR 020900Z 16009KT 9999 VCSH FEW018 SCT080 28/24 Q1011 RMK A2985 VCSH W

Hora: 04:48 (20:48 UTC)

Pronòstic

L'informe es va fer fa 3 hores i 48 minuts, a les 17:00 UTC
Pronòstic vàlid del 02 a les 18 UTC al 03 a les 18 UTC
Vent 6 kt del Sud/Sud-Est
Visibilitat 10 km o més
Escasses núvols a una alçada de 1800 ft
Núvols disperses a una alçada de 25000 ft
Temporalment
l' 02 a les 18 UTC al 02 a les 24 UTC
Vent 3 kt del Nord
Escasses núvols a una alçada de 1800 ft
Cel ennuvolat a una alçada de 8000 ft

TAF: RPMR 021700Z 0218/0318 16006KT 9999 FEW018 SCT250 TEMPO 0218/0224 35003KT FEW018 BKN080

Observacions i pronòstics meteorològics de més de 4000 aeroports (METAR i TAF).

Les estacions disponibles són els punts grocs i vermells al mapa.

Posi el ratolí al punt desitjat per veure el nom de l'estació.

Feu clic per veure les observacions i els pronòstics meteorològics.

Per canviar el mapa: feu clic els botons verds amb una creu de color negre per apropar; al botó verd amb un guió per allunyar la imatge; o en les fletxes verdes per a mapes adjacents.


METAR-TAF: